createdAt,value
2018-06-12T00:02:04.350Z,93.60
2018-06-12T00:04:33.115Z,93.20
2018-06-12T00:07:02.311Z,93.80
2018-06-12T00:09:30.562Z,93.60
2018-06-12T00:11:59.138Z,93.70
2018-06-12T00:14:28.991Z,93.90
2018-06-12T00:16:58.854Z,94.10
2018-06-12T00:19:27.231Z,93.80
2018-06-12T00:21:56.219Z,94.10
2018-06-12T00:24:25.161Z,94.30
2018-06-12T00:26:53.608Z,94.20
2018-06-12T00:29:23.218Z,94.20
2018-06-12T00:31:52.066Z,94.20
2018-06-12T00:34:20.231Z,94.20
2018-06-12T00:36:49.273Z,94.20
2018-06-12T00:39:18.082Z,94.20
2018-06-12T00:41:47.159Z,94.50
2018-06-12T00:44:15.641Z,94.20
2018-06-12T00:49:12.276Z,94.00
2018-06-12T00:51:41.018Z,93.90
2018-06-12T00:54:09.633Z,93.90
2018-06-12T00:56:49.376Z,94.20
2018-06-12T00:59:18.159Z,93.80
2018-06-12T01:01:46.926Z,93.90
2018-06-12T01:04:16.288Z,93.90
2018-06-12T01:06:45.248Z,94.10
2018-06-12T01:09:13.914Z,94.10
2018-06-12T01:11:42.792Z,94.20
2018-06-12T01:14:12.136Z,93.80
2018-06-12T01:16:41.153Z,93.80
2018-06-12T01:19:09.823Z,94.20
2018-06-12T01:21:38.079Z,94.10
2018-06-12T01:24:06.693Z,94.10
2018-06-12T01:26:34.859Z,94.20
2018-06-12T01:29:03.029Z,94.20
2018-06-12T01:31:32.129Z,94.70
2018-06-12T01:34:00.307Z,94.40
2018-06-12T01:36:29.798Z,94.90
2018-06-12T01:38:58.209Z,94.70
2018-06-12T01:41:26.958Z,94.70
2018-06-12T01:43:55.264Z,94.80
2018-06-12T01:46:23.600Z,94.80
2018-06-12T01:48:52.843Z,95.30
2018-06-12T01:51:21.618Z,95.20
2018-06-12T01:53:50.048Z,95.10
2018-06-12T01:56:18.292Z,94.90
2018-06-12T01:58:47.539Z,94.70
2018-06-12T02:01:16.055Z,94.40
2018-06-12T02:03:44.644Z,94.70
2018-06-12T02:06:13.713Z,94.70
2018-06-12T02:08:42.365Z,94.40
2018-06-12T02:11:11.394Z,94.50
2018-06-12T02:13:39.557Z,94.30
2018-06-12T02:16:08.557Z,94.60
2018-06-12T02:18:37.340Z,94.80
2018-06-12T02:21:05.843Z,94.60
2018-06-12T02:23:34.094Z,94.80
2018-06-12T02:26:02.597Z,94.20
2018-06-12T02:28:31.926Z,94.50
2018-06-12T02:31:00.064Z,94.80
2018-06-12T02:33:28.250Z,94.70
2018-06-12T02:35:56.643Z,94.80
2018-06-12T02:38:24.954Z,95.30
2018-06-12T02:40:53.644Z,94.60
2018-06-12T02:43:22.115Z,94.10
2018-06-12T02:45:50.481Z,94.40
2018-06-12T02:48:19.242Z,94.70
2018-06-12T02:50:48.702Z,95.00
2018-06-12T02:53:18.042Z,94.90
2018-06-12T02:55:47.038Z,94.90
2018-06-12T02:58:15.372Z,95.10
2018-06-12T03:00:44.733Z,94.90
2018-06-12T03:03:13.383Z,95.00
2018-06-12T03:05:42.067Z,94.70
2018-06-12T03:08:10.883Z,95.00
2018-06-12T03:10:40.118Z,94.90
2018-06-12T03:13:08.294Z,95.20
2018-06-12T03:15:36.858Z,95.00
2018-06-12T03:18:06.079Z,94.80
2018-06-12T03:20:43.865Z,95.00
2018-06-12T03:23:12.427Z,95.10
2018-06-12T03:25:41.493Z,95.00
2018-06-12T03:28:09.626Z,94.80
2018-06-12T03:30:37.819Z,94.70
2018-06-12T03:33:06.089Z,95.40
2018-06-12T03:35:36.035Z,95.00
2018-06-12T03:38:04.576Z,94.90
2018-06-12T03:40:32.762Z,95.10
2018-06-12T03:43:01.507Z,95.30
2018-06-12T03:45:29.909Z,95.40
2018-06-12T03:47:58.059Z,95.00
2018-06-12T03:50:26.749Z,95.20
2018-06-12T03:52:56.702Z,95.10
2018-06-12T03:55:25.559Z,95.40
2018-06-12T03:57:54.066Z,95.00
2018-06-12T04:02:52.857Z,95.20
2018-06-12T04:05:22.265Z,95.20
2018-06-12T04:07:51.034Z,94.80
2018-06-12T04:10:19.973Z,94.90
2018-06-12T04:12:48.347Z,94.60
2018-06-12T04:15:17.943Z,94.90
2018-06-12T04:17:46.791Z,94.50
2018-06-12T04:20:14.991Z,95.20
2018-06-12T04:22:43.323Z,95.00
2018-06-12T04:25:11.586Z,95.00
2018-06-12T04:27:39.872Z,94.80
2018-06-12T04:30:08.189Z,94.70
2018-06-12T04:32:37.707Z,94.90
2018-06-12T04:35:05.854Z,94.80
2018-06-12T04:37:34.557Z,94.50
2018-06-12T04:40:02.782Z,94.60
2018-06-12T04:42:31.961Z,94.60
2018-06-12T04:45:00.710Z,94.30
2018-06-12T04:47:29.750Z,94.50
2018-06-12T04:49:58.446Z,94.00
2018-06-12T04:52:27.776Z,94.30
2018-06-12T04:54:56.722Z,94.30
2018-06-12T04:57:25.374Z,94.50
2018-06-12T04:59:53.807Z,94.50
2018-06-12T05:02:22.283Z,94.10
2018-06-12T05:04:51.625Z,94.00
2018-06-12T05:07:20.237Z,93.90
2018-06-12T05:09:49.350Z,93.90
2018-06-12T05:12:17.514Z,93.70
2018-06-12T05:14:45.729Z,93.50
2018-06-12T06:39:12.376Z,93.50
2018-06-12T06:41:40.618Z,93.30
2018-06-12T06:44:08.726Z,92.90
2018-06-12T06:46:37.669Z,93.20
2018-06-12T06:49:06.907Z,93.60
2018-06-12T06:51:35.751Z,93.00
2018-06-12T06:54:03.980Z,92.70
2018-06-12T06:56:33.273Z,92.70
2018-06-12T06:59:01.609Z,92.60
2018-06-12T07:01:31.285Z,92.40
2018-06-12T07:04:00.353Z,91.90
2018-06-12T07:06:29.374Z,92.00
2018-06-12T07:08:58.115Z,92.10
2018-06-12T07:11:26.900Z,92.10
2018-06-12T07:13:55.217Z,92.70
2018-06-12T07:16:24.205Z,92.40
2018-06-12T07:18:52.914Z,92.80
2018-06-12T07:21:24.099Z,92.70
2018-06-12T07:23:52.323Z,92.30
2018-06-12T07:26:20.502Z,92.80
2018-06-12T07:28:48.681Z,91.80
2018-06-12T07:31:18.268Z,92.50
2018-06-12T07:33:46.951Z,92.10
2018-06-12T07:36:15.611Z,92.00
2018-06-12T07:38:43.862Z,91.80
2018-06-12T07:41:12.191Z,92.50
2018-06-12T07:43:40.319Z,92.80
2018-06-12T07:46:08.939Z,92.90
2018-06-12T07:48:37.439Z,92.80
2018-06-12T07:51:06.328Z,92.40
2018-06-12T07:53:35.633Z,91.60
2018-06-12T07:56:04.026Z,92.00
2018-06-12T07:58:34.195Z,92.40
2018-06-12T08:01:03.064Z,93.20
2018-06-12T08:03:32.067Z,93.10
2018-06-12T08:06:02.083Z,93.10
2018-06-12T08:08:32.500Z,92.90
2018-06-12T08:11:01.558Z,92.50
2018-06-12T08:13:30.402Z,92.40
2018-06-12T08:15:59.147Z,91.10
2018-06-12T08:18:27.792Z,90.80
2018-06-12T08:20:56.857Z,90.60
2018-06-12T08:25:52.960Z,90.80
2018-06-12T08:28:22.948Z,91.00
2018-06-12T08:30:52.076Z,90.80
2018-06-12T08:33:20.272Z,91.10
2018-06-12T08:35:48.815Z,91.10
2018-06-12T08:38:17.334Z,91.50
2018-06-12T08:40:45.488Z,91.60
2018-06-12T08:43:14.290Z,91.90
2018-06-12T08:45:42.564Z,91.70
2018-06-12T08:48:11.515Z,91.60
2018-06-12T08:50:40.686Z,92.10
2018-06-12T08:53:09.322Z,91.80
2018-06-12T08:55:38.090Z,91.90
2018-06-12T08:58:06.386Z,90.50
2018-06-12T09:00:34.570Z,90.80
2018-06-12T09:03:03.394Z,90.70
2018-06-12T09:05:32.255Z,90.60
2018-06-12T09:08:00.668Z,91.20
2018-06-12T09:10:28.818Z,91.40
2018-06-12T09:12:57.135Z,91.60
2018-06-12T09:15:25.959Z,91.80
2018-06-12T09:17:54.455Z,92.20
2018-06-12T09:20:22.564Z,91.30
2018-06-12T09:22:50.703Z,91.00
2018-06-12T09:25:19.365Z,88.20
2018-06-12T09:27:48.090Z,88.10
2018-06-12T09:30:17.311Z,89.30
2018-06-12T09:32:45.834Z,88.60
2018-06-12T09:35:15.333Z,88.80
2018-06-12T09:37:44.065Z,88.30
2018-06-12T09:40:12.893Z,86.80
2018-06-12T09:42:41.225Z,87.10
2018-06-12T09:45:09.427Z,88.20
2018-06-12T09:47:37.740Z,88.80
2018-06-12T09:50:06.646Z,88.30
2018-06-12T09:52:35.673Z,89.40
2018-06-12T09:55:04.646Z,89.40
2018-06-12T09:57:33.811Z,90.00
2018-06-12T10:00:02.236Z,89.60
2018-06-12T10:02:30.926Z,89.40
2018-06-12T10:04:59.228Z,89.20
2018-06-12T10:07:27.539Z,89.50
2018-06-12T10:09:56.845Z,90.40
2018-06-12T10:12:25.581Z,90.60
2018-06-12T10:19:51.459Z,91.30
2018-06-12T10:24:59.473Z,91.20
2018-06-12T10:29:56.354Z,90.80
2018-06-12T10:32:25.133Z,90.30
2018-06-12T10:34:53.646Z,90.10
2018-06-12T10:37:22.145Z,89.10
2018-06-12T10:39:51.139Z,86.40
2018-06-12T10:42:19.902Z,86.70
2018-06-12T10:44:48.850Z,84.40
2018-06-12T10:47:17.143Z,85.20
2018-06-12T10:52:13.214Z,85.90
2018-06-12T10:54:41.807Z,88.80
2018-06-12T10:57:11.166Z,88.80
2018-06-12T10:59:40.027Z,88.60
2018-06-12T11:02:08.334Z,88.00
2018-06-12T11:04:38.154Z,86.80
2018-06-12T11:07:06.673Z,85.70
2018-06-12T11:09:35.614Z,85.40
2018-06-12T11:12:04.425Z,85.10
2018-06-12T11:14:33.336Z,87.70
2018-06-12T11:17:03.218Z,88.50
2018-06-12T11:19:31.960Z,89.40
2018-06-12T11:22:00.910Z,88.60
2018-06-12T11:24:29.093Z,90.20
2018-06-12T11:26:57.364Z,89.50
2018-06-12T11:34:23.523Z,85.50
2018-06-12T11:36:53.059Z,87.50
2018-06-12T11:39:22.076Z,86.80
2018-06-12T11:41:50.253Z,86.70
2018-06-12T11:44:19.202Z,86.70
2018-06-12T11:46:48.246Z,86.70
2018-06-12T11:49:16.560Z,89.10
2018-06-12T11:51:45.038Z,90.20
2018-06-12T11:54:13.994Z,90.20
2018-06-12T11:56:42.988Z,90.60
2018-06-12T11:59:11.780Z,89.60
2018-06-12T12:01:40.493Z,89.60
2018-06-12T12:06:36.903Z,87.00
2018-06-12T12:09:07.706Z,87.00
2018-06-12T12:11:37.294Z,84.40
2018-06-12T12:16:33.511Z,83.80
2018-06-12T12:19:02.740Z,85.00
2018-06-12T12:21:31.535Z,82.70
2018-06-12T12:23:59.666Z,83.20
2018-06-12T12:26:27.894Z,84.00
2018-06-12T12:31:25.118Z,87.60
2018-06-12T12:33:53.765Z,88.50
2018-06-12T12:36:22.694Z,89.30
2018-06-12T12:38:52.075Z,90.20
2018-06-12T12:41:20.329Z,90.40
2018-06-12T12:43:50.218Z,89.90
2018-06-12T12:48:46.846Z,90.20
2018-06-12T12:51:15.065Z,89.30
2018-06-12T12:53:43.788Z,90.10
2018-06-12T12:56:12.805Z,88.90
2018-06-12T12:58:41.085Z,87.70
2018-06-12T13:01:09.434Z,85.90
2018-06-12T13:03:37.825Z,87.60
2018-06-12T13:06:06.230Z,86.30
2018-06-12T13:08:34.927Z,85.40
2018-06-12T13:11:04.390Z,87.70
2018-06-12T13:13:32.994Z,87.30
2018-06-12T13:16:01.242Z,87.50
2018-06-12T13:18:29.606Z,88.90
2018-06-12T13:20:58.208Z,88.60
2018-06-12T13:23:26.777Z,86.60
2018-06-12T13:25:55.619Z,85.40
2018-06-12T13:28:23.748Z,87.40
2018-06-12T13:30:52.626Z,87.60
2018-06-12T13:33:20.931Z,88.80
2018-06-12T13:35:49.010Z,88.00
2018-06-12T13:38:18.489Z,87.90
2018-06-12T13:40:46.815Z,88.30
2018-06-12T13:43:15.682Z,88.30
2018-06-12T13:45:44.315Z,88.20
2018-06-12T13:48:12.869Z,89.50
2018-06-12T13:50:42.262Z,90.70
2018-06-12T13:53:12.748Z,89.70
2018-06-12T13:55:40.922Z,90.30
2018-06-12T14:00:42.423Z,91.10
2018-06-12T14:03:10.873Z,90.60
2018-06-12T14:05:39.653Z,90.80
2018-06-12T14:08:08.326Z,90.70
2018-06-12T14:10:36.931Z,90.20
2018-06-12T14:13:05.114Z,90.20
2018-06-12T14:18:01.423Z,90.40
2018-06-12T14:20:29.838Z,91.40
2018-06-12T14:23:00.209Z,90.80
2018-06-12T14:25:29.472Z,90.30
2018-06-12T14:27:58.163Z,90.20
2018-06-12T14:30:27.085Z,90.40
2018-06-12T14:32:55.417Z,90.00
2018-06-12T14:37:53.414Z,89.10
2018-06-12T14:40:21.667Z,89.90
2018-06-12T14:42:50.349Z,88.00
2018-06-12T14:45:19.298Z,88.40
2018-06-12T14:47:48.310Z,88.40
2018-06-12T14:50:16.543Z,86.60
2018-06-12T14:52:45.442Z,88.10
2018-06-12T14:55:16.400Z,88.80
2018-06-12T14:57:45.098Z,89.60
2018-06-12T15:00:14.421Z,90.00
2018-06-12T15:02:42.722Z,89.10
2018-06-12T15:07:38.884Z,90.20
2018-06-12T15:10:07.170Z,90.40
2018-06-12T15:12:36.727Z,89.40
2018-06-12T15:15:05.269Z,90.50
2018-06-12T15:17:34.141Z,90.40
2018-06-12T15:20:02.927Z,90.60
2018-06-12T15:25:00.709Z,90.60
2018-06-12T15:27:28.992Z,90.50
2018-06-12T15:29:58.562Z,90.60
2018-06-12T15:32:26.835Z,90.80
2018-06-12T15:34:56.310Z,90.20
2018-06-12T15:37:24.981Z,88.70
2018-06-12T15:39:53.489Z,89.50
2018-06-12T15:42:22.770Z,90.30
2018-06-12T15:44:51.591Z,90.10
2018-06-12T15:47:19.931Z,90.50
2018-06-12T15:49:49.093Z,90.30
2018-06-12T15:52:18.317Z,90.50
2018-06-12T15:54:46.605Z,90.20
2018-06-12T15:57:15.538Z,90.90
2018-06-12T15:59:44.504Z,88.60
2018-06-12T16:02:12.722Z,91.50
2018-06-12T16:04:41.184Z,91.50
2018-06-12T16:07:09.556Z,91.60
2018-06-12T16:09:37.714Z,91.90
2018-06-12T16:12:06.630Z,92.00
2018-06-12T16:14:35.391Z,92.10
2018-06-12T16:17:04.189Z,91.90
2018-06-12T16:19:32.618Z,91.60
2018-06-12T16:22:00.983Z,91.80
2018-06-12T16:24:30.258Z,90.70
2018-06-12T16:26:59.230Z,91.60
2018-06-12T16:29:28.133Z,92.20
2018-06-12T16:31:56.505Z,92.00
2018-06-12T16:34:25.333Z,91.80
2018-06-12T16:36:54.155Z,92.50
2018-06-12T16:40:51.561Z,92.50
2018-06-12T16:43:20.062Z,92.70
2018-06-12T16:45:48.413Z,93.20
2018-06-12T16:48:16.626Z,93.50
2018-06-12T16:50:45.461Z,93.50
2018-06-12T16:53:13.753Z,94.00
2018-06-12T16:55:42.046Z,93.70
2018-06-12T16:58:10.218Z,94.40
2018-06-12T17:00:38.355Z,94.90
2018-06-12T17:05:35.282Z,94.40
2018-06-12T17:08:05.523Z,94.70
2018-06-12T17:10:34.622Z,94.30
2018-06-12T17:13:03.814Z,94.40
2018-06-12T17:15:32.462Z,94.70
2018-06-12T17:18:01.338Z,94.60
2018-06-12T17:20:30.573Z,93.90
2018-06-12T17:22:59.528Z,94.20
2018-06-12T17:25:27.946Z,94.40
2018-06-12T17:27:56.624Z,93.90
2018-06-12T17:30:25.073Z,94.00
2018-06-12T17:32:53.282Z,94.40
2018-06-12T17:35:21.471Z,94.70
2018-06-12T17:40:20.220Z,94.60
2018-06-12T17:42:49.246Z,94.70
2018-06-12T17:45:17.569Z,94.70
2018-06-12T17:47:46.955Z,94.10
2018-06-12T17:50:16.279Z,94.40
2018-06-12T17:52:44.382Z,95.10
2018-06-12T17:55:13.267Z,95.10
2018-06-12T17:57:41.341Z,94.60
2018-06-12T18:00:09.632Z,94.20
2018-06-12T18:02:38.001Z,94.10
2018-06-12T18:05:06.457Z,94.30
2018-06-12T18:10:04.070Z,94.10
2018-06-12T18:12:32.466Z,94.20
2018-06-12T18:15:01.292Z,94.20
2018-06-12T18:17:30.258Z,94.40
2018-06-12T18:20:01.499Z,94.60
2018-06-12T18:22:30.560Z,94.90
2018-06-12T18:24:59.789Z,95.10
2018-06-12T18:27:28.594Z,95.10
2018-06-12T18:29:56.718Z,95.10
2018-06-12T18:32:26.286Z,95.00
2018-06-12T18:34:54.528Z,94.70
2018-06-12T18:37:23.582Z,94.30
2018-06-12T18:39:52.638Z,94.00
2018-06-12T18:42:23.636Z,93.90
2018-06-12T18:44:52.066Z,94.50
2018-06-12T18:47:21.050Z,94.20
2018-06-12T18:49:49.593Z,94.20
2018-06-12T18:52:18.030Z,94.20
2018-06-12T18:54:47.617Z,94.40
2018-06-12T18:57:15.790Z,94.40
2018-06-12T18:59:44.790Z,94.70
2018-06-12T19:02:13.006Z,94.80
2018-06-12T19:04:42.119Z,94.90
2018-06-12T19:07:10.842Z,94.90
2018-06-12T19:09:39.907Z,94.80
2018-06-12T19:12:08.675Z,94.90
2018-06-12T19:17:05.201Z,95.30
2018-06-12T19:19:34.762Z,94.90
2018-06-12T19:22:02.976Z,94.70
2018-06-12T19:24:31.565Z,94.60
2018-06-12T19:27:00.201Z,94.30
2018-06-12T19:29:29.474Z,94.10
2018-06-12T19:34:25.701Z,94.50
2018-06-12T19:36:54.194Z,94.30
2018-06-12T19:39:23.050Z,94.80
2018-06-12T19:41:52.477Z,94.30
2018-06-12T19:44:21.026Z,94.40
2018-06-12T19:46:49.222Z,94.50
2018-06-12T19:49:18.105Z,94.50
2018-06-12T19:51:47.118Z,94.80
2018-06-12T19:54:15.867Z,94.40
2018-06-12T19:56:43.950Z,94.30
2018-06-12T19:59:13.049Z,94.40
2018-06-12T20:01:42.047Z,94.40
2018-06-12T20:04:10.933Z,94.20
2018-06-12T20:06:39.438Z,94.40
2018-06-12T20:09:08.493Z,94.40
2018-06-12T20:11:37.565Z,94.30
2018-06-12T20:14:06.265Z,94.40
2018-06-12T20:16:34.958Z,94.70
2018-06-12T20:19:03.174Z,94.60
2018-06-12T20:21:31.684Z,94.70
2018-06-12T20:23:59.999Z,94.70
2018-06-12T20:26:28.246Z,94.90
2018-06-12T20:28:56.339Z,95.10
2018-06-12T20:31:24.938Z,94.90
2018-06-12T20:33:53.582Z,95.10
2018-06-12T20:36:22.082Z,95.30
2018-06-12T20:38:50.576Z,95.50
2018-06-12T20:41:19.594Z,95.80
2018-06-12T20:43:48.214Z,95.60
2018-06-12T20:48:44.734Z,96.00
2018-06-12T20:51:13.273Z,96.50
2018-06-12T20:53:41.612Z,96.70
2018-06-12T20:56:10.057Z,97.00
2018-06-12T20:58:38.452Z,97.20
2018-06-12T21:01:07.864Z,97.30
2018-06-12T21:03:36.906Z,97.00
2018-06-12T21:06:05.205Z,97.20
2018-06-12T21:08:34.175Z,97.30
2018-06-12T21:11:02.437Z,97.20
2018-06-12T21:15:59.897Z,97.70
2018-06-12T21:18:28.519Z,98.00
2018-06-12T21:20:57.457Z,98.50
2018-06-12T21:23:26.638Z,98.70
2018-06-12T21:25:54.818Z,99.10
2018-06-12T21:28:24.841Z,99.10
2018-06-12T21:30:52.957Z,99.10
2018-06-12T21:33:21.269Z,98.70
2018-06-12T21:35:49.894Z,98.70
2018-06-12T21:38:18.706Z,99.10
2018-06-12T21:40:47.566Z,99.10
2018-06-12T21:43:16.045Z,99.20
2018-06-12T21:45:44.797Z,98.80
2018-06-12T21:48:13.554Z,99.50
2018-06-12T21:50:42.181Z,98.70
2018-06-12T21:53:10.947Z,99.20
2018-06-12T21:55:40.000Z,98.90
2018-06-12T21:58:08.583Z,99.10
2018-06-12T22:00:37.674Z,99.00
2018-06-12T22:03:06.123Z,99.40
2018-06-12T22:05:35.629Z,99.00
2018-06-12T22:08:03.985Z,99.30
2018-06-12T22:10:32.817Z,99.20
2018-06-12T22:13:01.555Z,99.20
2018-06-12T22:15:30.486Z,99.40
2018-06-12T22:17:58.670Z,99.40
2018-06-12T22:20:27.739Z,99.90
2018-06-12T22:22:56.022Z,99.90
2018-06-12T22:25:24.293Z,99.90
2018-06-12T22:27:53.283Z,99.90
2018-06-12T22:30:22.141Z,99.90
2018-06-12T22:35:19.007Z,99.90
2018-06-12T22:37:47.273Z,99.90
2018-06-12T22:40:15.397Z,99.90
2018-06-12T22:42:44.632Z,99.90
2018-06-12T22:45:13.378Z,99.90
2018-06-12T22:47:41.798Z,99.90
2018-06-12T22:50:09.955Z,99.90
2018-06-12T22:52:38.652Z,99.90
2018-06-12T22:55:06.754Z,99.90
2018-06-12T22:57:34.878Z,99.90
2018-06-12T23:00:03.658Z,99.90
2018-06-12T23:02:32.442Z,99.90
2018-06-12T23:05:00.729Z,99.90
2018-06-12T23:07:29.715Z,99.90
2018-06-12T23:09:57.960Z,99.90
2018-06-12T23:14:54.954Z,99.90
2018-06-12T23:17:23.234Z,99.90
2018-06-12T23:20:02.858Z,99.90
2018-06-12T23:22:31.186Z,99.90
2018-06-12T23:24:59.848Z,99.90
2018-06-12T23:27:28.828Z,99.90
2018-06-12T23:29:59.166Z,99.90
2018-06-12T23:32:27.487Z,99.90
2018-06-12T23:37:25.024Z,99.90
2018-06-12T23:39:53.728Z,99.90
2018-06-12T23:42:22.690Z,99.90
2018-06-12T23:44:50.966Z,99.90
2018-06-12T23:47:19.274Z,99.90
2018-06-12T23:49:47.601Z,99.90
2018-06-12T23:52:15.851Z,99.90
2018-06-12T23:54:44.870Z,99.90
2018-06-12T23:57:13.498Z,99.90
2018-06-12T23:59:42.369Z,99.90
